sensor_id;sensor_type;location;lat;lon;timestamp;P1;durP1;ratioP1;P2;durP2;ratioP2
10281;SDS011;5186;59.472;18.048;2022-07-03T00:01:32;2.63;;;1.27;;
10281;SDS011;5186;59.472;18.048;2022-07-03T00:03:58;3.23;;;1.40;;
10281;SDS011;5186;59.472;18.048;2022-07-03T00:06:25;1.37;;;1.23;;
10281;SDS011;5186;59.472;18.048;2022-07-03T00:08:51;2.03;;;1.30;;
10281;SDS011;5186;59.472;18.048;2022-07-03T00:11:17;3.37;;;1.10;;
10281;SDS011;5186;59.472;18.048;2022-07-03T00:13:43;1.70;;;1.40;;
10281;SDS011;5186;59.472;18.048;2022-07-03T00:16:09;2.10;;;1.30;;
10281;SDS011;5186;59.472;18.048;2022-07-03T00:18:34;2.00;;;1.40;;
10281;SDS011;5186;59.472;18.048;2022-07-03T00:21:02;2.20;;;1.23;;
10281;SDS011;5186;59.472;18.048;2022-07-03T00:23:29;1.10;;;1.00;;
10281;SDS011;5186;59.472;18.048;2022-07-03T00:26:04;2.10;;;1.30;;
10281;SDS011;5186;59.472;18.048;2022-07-03T00:28:30;2.83;;;1.33;;
10281;SDS011;5186;59.472;18.048;2022-07-03T00:30:57;1.60;;;1.00;;
10281;SDS011;5186;59.472;18.048;2022-07-03T00:33:23;3.13;;;1.43;;
10281;SDS011;5186;59.472;18.048;2022-07-03T00:35:53;2.23;;;1.30;;
10281;SDS011;5186;59.472;18.048;2022-07-03T00:38:20;3.10;;;1.27;;
10281;SDS011;5186;59.472;18.048;2022-07-03T00:40:47;2.30;;;1.10;;
10281;SDS011;5186;59.472;18.048;2022-07-03T00:43:13;1.90;;;1.13;;
10281;SDS011;5186;59.472;18.048;2022-07-03T00:45:43;3.50;;;1.63;;
10281;SDS011;5186;59.472;18.048;2022-07-03T00:48:12;1.87;;;1.27;;
10281;SDS011;5186;59.472;18.048;2022-07-03T00:50:50;1.53;;;1.43;;
10281;SDS011;5186;59.472;18.048;2022-07-03T00:53:26;3.73;;;1.43;;
10281;SDS011;5186;59.472;18.048;2022-07-03T00:55:55;3.33;;;1.50;;
10281;SDS011;5186;59.472;18.048;2022-07-03T00:58:21;3.10;;;1.50;;
10281;SDS011;5186;59.472;18.048;2022-07-03T01:00:48;1.57;;;1.43;;
10281;SDS011;5186;59.472;18.048;2022-07-03T01:03:17;1.67;;;1.17;;
10281;SDS011;5186;59.472;18.048;2022-07-03T01:05:46;2.03;;;1.30;;
10281;SDS011;5186;59.472;18.048;2022-07-03T01:11:20;3.90;;;1.47;;
10281;SDS011;5186;59.472;18.048;2022-07-03T01:13:55;1.37;;;1.27;;
10281;SDS011;5186;59.472;18.048;2022-07-03T01:24:37;2.43;;;1.50;;
10281;SDS011;5186;59.472;18.048;2022-07-03T01:27:28;1.83;;;1.50;;
10281;SDS011;5186;59.472;18.048;2022-07-03T01:30:10;2.93;;;1.50;;
10281;SDS011;5186;59.472;18.048;2022-07-03T01:32:46;4.13;;;1.33;;
10281;SDS011;5186;59.472;18.048;2022-07-03T01:35:22;2.40;;;1.60;;
10281;SDS011;5186;59.472;18.048;2022-07-03T01:38:13;1.87;;;1.53;;
10281;SDS011;5186;59.472;18.048;2022-07-03T01:40:40;2.43;;;1.63;;
10281;SDS011;5186;59.472;18.048;2022-07-03T01:43:08;3.03;;;1.40;;
10281;SDS011;5186;59.472;18.048;2022-07-03T01:45:37;3.70;;;1.57;;
10281;SDS011;5186;59.472;18.048;2022-07-03T01:48:14;1.97;;;1.40;;
10281;SDS011;5186;59.472;18.048;2022-07-03T01:50:41;3.87;;;1.60;;
10281;SDS011;5186;59.472;18.048;2022-07-03T01:53:10;2.37;;;1.60;;
10281;SDS011;5186;59.472;18.048;2022-07-03T01:55:40;2.30;;;1.53;;
10281;SDS011;5186;59.472;18.048;2022-07-03T01:58:06;2.60;;;1.50;;
10281;SDS011;5186;59.472;18.048;2022-07-03T02:00:38;2.57;;;1.87;;
10281;SDS011;5186;59.472;18.048;2022-07-03T02:03:29;3.50;;;1.37;;
10281;SDS011;5186;59.472;18.048;2022-07-03T02:06:20;1.53;;;1.40;;
10281;SDS011;5186;59.472;18.048;2022-07-03T02:08:57;1.63;;;1.30;;
10281;SDS011;5186;59.472;18.048;2022-07-03T02:11:32;2.77;;;1.40;;
10281;SDS011;5186;59.472;18.048;2022-07-03T02:14:12;1.80;;;1.70;;
10281;SDS011;5186;59.472;18.048;2022-07-03T02:16:54;1.83;;;1.53;;
10281;SDS011;5186;59.472;18.048;2022-07-03T02:19:27;3.30;;;1.70;;
10281;SDS011;5186;59.472;18.048;2022-07-03T02:22:16;1.83;;;1.47;;
10281;SDS011;5186;59.472;18.048;2022-07-03T02:24:44;2.63;;;1.50;;
10281;SDS011;5186;59.472;18.048;2022-07-03T02:27:24;1.70;;;1.60;;
10281;SDS011;5186;59.472;18.048;2022-07-03T02:29:54;2.77;;;1.60;;
10281;SDS011;5186;59.472;18.048;2022-07-03T02:32:23;3.57;;;1.83;;
10281;SDS011;5186;59.472;18.048;2022-07-03T02:34:58;2.43;;;1.60;;
10281;SDS011;5186;59.472;18.048;2022-07-03T02:37:44;2.97;;;1.80;;
10281;SDS011;5186;59.472;18.048;2022-07-03T02:40:24;3.10;;;1.60;;
10281;SDS011;5186;59.472;18.048;2022-07-03T02:45:49;2.40;;;1.80;;
10281;SDS011;5186;59.472;18.048;2022-07-03T02:48:44;3.47;;;1.70;;
10281;SDS011;5186;59.472;18.048;2022-07-03T02:51:13;2.20;;;1.57;;
10281;SDS011;5186;59.472;18.048;2022-07-03T02:53:47;2.80;;;1.77;;
10281;SDS011;5186;59.472;18.048;2022-07-03T02:56:43;1.80;;;1.50;;
10281;SDS011;5186;59.472;18.048;2022-07-03T03:02:06;2.40;;;1.87;;
10281;SDS011;5186;59.472;18.048;2022-07-03T03:04:39;2.13;;;1.70;;
10281;SDS011;5186;59.472;18.048;2022-07-03T03:07:11;3.87;;;2.10;;
10281;SDS011;5186;59.472;18.048;2022-07-03T03:09:40;2.80;;;1.60;;
10281;SDS011;5186;59.472;18.048;2022-07-03T03:12:11;2.00;;;1.63;;
10281;SDS011;5186;59.472;18.048;2022-07-03T03:17:04;2.63;;;1.70;;
10281;SDS011;5186;59.472;18.048;2022-07-03T03:19:32;1.73;;;1.63;;
10281;SDS011;5186;59.472;18.048;2022-07-03T03:25:04;2.33;;;1.73;;
10281;SDS011;5186;59.472;18.048;2022-07-03T03:27:30;1.97;;;1.80;;
10281;SDS011;5186;59.472;18.048;2022-07-03T03:29:56;2.53;;;1.87;;
10281;SDS011;5186;59.472;18.048;2022-07-03T03:32:22;3.10;;;1.80;;
10281;SDS011;5186;59.472;18.048;2022-07-03T03:34:49;4.93;;;2.10;;
10281;SDS011;5186;59.472;18.048;2022-07-03T03:37:15;2.87;;;1.73;;
10281;SDS011;5186;59.472;18.048;2022-07-03T03:39:41;2.73;;;1.80;;
10281;SDS011;5186;59.472;18.048;2022-07-03T03:42:07;5.03;;;2.20;;
10281;SDS011;5186;59.472;18.048;2022-07-03T03:44:33;2.23;;;2.03;;
10281;SDS011;5186;59.472;18.048;2022-07-03T03:46:59;4.47;;;2.30;;
10281;SDS011;5186;59.472;18.048;2022-07-03T03:49:25;7.87;;;2.20;;
10281;SDS011;5186;59.472;18.048;2022-07-03T03:51:51;6.37;;;2.33;;
10281;SDS011;5186;59.472;18.048;2022-07-03T03:54:17;3.73;;;1.90;;
10281;SDS011;5186;59.472;18.048;2022-07-03T03:56:43;3.80;;;2.07;;
10281;SDS011;5186;59.472;18.048;2022-07-03T03:59:09;2.63;;;2.30;;
10281;SDS011;5186;59.472;18.048;2022-07-03T04:01:34;2.00;;;1.90;;
10281;SDS011;5186;59.472;18.048;2022-07-03T04:04:00;2.53;;;1.87;;
10281;SDS011;5186;59.472;18.048;2022-07-03T04:06:26;1.83;;;1.73;;
10281;SDS011;5186;59.472;18.048;2022-07-03T04:08:51;4.03;;;2.27;;
10281;SDS011;5186;59.472;18.048;2022-07-03T04:11:17;3.00;;;1.90;;
10281;SDS011;5186;59.472;18.048;2022-07-03T04:13:43;5.30;;;1.93;;
10281;SDS011;5186;59.472;18.048;2022-07-03T04:16:10;3.00;;;1.87;;
10281;SDS011;5186;59.472;18.048;2022-07-03T04:18:36;4.07;;;2.30;;
10281;SDS011;5186;59.472;18.048;2022-07-03T04:21:02;4.87;;;1.90;;
10281;SDS011;5186;59.472;18.048;2022-07-03T04:23:28;2.77;;;1.73;;
10281;SDS011;5186;59.472;18.048;2022-07-03T04:25:54;3.23;;;1.90;;
10281;SDS011;5186;59.472;18.048;2022-07-03T04:28:20;3.90;;;1.63;;
10281;SDS011;5186;59.472;18.048;2022-07-03T04:30:46;2.10;;;1.80;;
10281;SDS011;5186;59.472;18.048;2022-07-03T04:33:12;3.13;;;1.83;;
10281;SDS011;5186;59.472;18.048;2022-07-03T04:35:38;2.23;;;1.60;;
10281;SDS011;5186;59.472;18.048;2022-07-03T04:38:03;3.37;;;1.90;;
10281;SDS011;5186;59.472;18.048;2022-07-03T04:40:29;2.17;;;1.80;;
10281;SDS011;5186;59.472;18.048;2022-07-03T04:42:55;3.90;;;1.83;;
10281;SDS011;5186;59.472;18.048;2022-07-03T04:45:21;2.17;;;1.40;;
10281;SDS011;5186;59.472;18.048;2022-07-03T04:47:47;2.80;;;1.83;;
10281;SDS011;5186;59.472;18.048;2022-07-03T04:50:12;2.20;;;1.67;;
10281;SDS011;5186;59.472;18.048;2022-07-03T04:52:38;1.80;;;1.50;;
10281;SDS011;5186;59.472;18.048;2022-07-03T04:55:04;1.97;;;1.63;;
10281;SDS011;5186;59.472;18.048;2022-07-03T04:57:29;3.43;;;1.77;;
10281;SDS011;5186;59.472;18.048;2022-07-03T04:59:55;2.50;;;1.37;;
10281;SDS011;5186;59.472;18.048;2022-07-03T05:02:21;3.10;;;1.63;;
10281;SDS011;5186;59.472;18.048;2022-07-03T05:04:46;5.67;;;1.63;;
10281;SDS011;5186;59.472;18.048;2022-07-03T05:07:12;5.07;;;1.60;;
10281;SDS011;5186;59.472;18.048;2022-07-03T05:09:37;3.00;;;1.37;;
10281;SDS011;5186;59.472;18.048;2022-07-03T05:12:03;2.50;;;1.37;;
10281;SDS011;5186;59.472;18.048;2022-07-03T05:14:29;4.30;;;1.70;;
10281;SDS011;5186;59.472;18.048;2022-07-03T05:16:55;2.40;;;2.00;;
10281;SDS011;5186;59.472;18.048;2022-07-03T05:19:20;4.57;;;1.40;;
10281;SDS011;5186;59.472;18.048;2022-07-03T05:21:46;2.50;;;1.50;;
10281;SDS011;5186;59.472;18.048;2022-07-03T05:24:11;2.40;;;1.30;;
10281;SDS011;5186;59.472;18.048;2022-07-03T05:26:37;3.23;;;1.10;;
10281;SDS011;5186;59.472;18.048;2022-07-03T05:29:03;3.43;;;1.33;;
10281;SDS011;5186;59.472;18.048;2022-07-03T05:31:28;2.10;;;1.30;;
10281;SDS011;5186;59.472;18.048;2022-07-03T05:33:54;3.90;;;1.40;;
10281;SDS011;5186;59.472;18.048;2022-07-03T05:36:19;4.47;;;1.40;;
10281;SDS011;5186;59.472;18.048;2022-07-03T05:38:45;2.33;;;1.33;;
10281;SDS011;5186;59.472;18.048;2022-07-03T05:41:29;4.20;;;1.20;;
10281;SDS011;5186;59.472;18.048;2022-07-03T05:43:55;1.50;;;1.40;;
10281;SDS011;5186;59.472;18.048;2022-07-03T05:46:20;2.30;;;1.10;;
10281;SDS011;5186;59.472;18.048;2022-07-03T05:48:46;4.10;;;1.10;;
10281;SDS011;5186;59.472;18.048;2022-07-03T05:51:11;2.40;;;1.27;;
10281;SDS011;5186;59.472;18.048;2022-07-03T05:53:37;1.63;;;1.07;;
10281;SDS011;5186;59.472;18.048;2022-07-03T05:56:03;3.10;;;1.30;;
10281;SDS011;5186;59.472;18.048;2022-07-03T05:58:28;2.90;;;1.37;;
10281;SDS011;5186;59.472;18.048;2022-07-03T06:00:54;2.40;;;1.10;;
10281;SDS011;5186;59.472;18.048;2022-07-03T06:03:20;2.77;;;1.07;;
10281;SDS011;5186;59.472;18.048;2022-07-03T06:05:45;2.53;;;1.10;;
10281;SDS011;5186;59.472;18.048;2022-07-03T06:08:11;3.40;;;1.10;;
10281;SDS011;5186;59.472;18.048;2022-07-03T06:10:36;2.97;;;1.20;;
10281;SDS011;5186;59.472;18.048;2022-07-03T06:13:02;1.77;;;1.23;;
10281;SDS011;5186;59.472;18.048;2022-07-03T06:15:28;3.50;;;1.37;;
10281;SDS011;5186;59.472;18.048;2022-07-03T06:17:53;2.80;;;1.07;;
10281;SDS011;5186;59.472;18.048;2022-07-03T06:20:19;2.60;;;1.37;;
10281;SDS011;5186;59.472;18.048;2022-07-03T06:22:45;2.63;;;1.20;;
10281;SDS011;5186;59.472;18.048;2022-07-03T06:25:11;2.07;;;1.00;;
10281;SDS011;5186;59.472;18.048;2022-07-03T06:27:37;3.80;;;1.20;;
10281;SDS011;5186;59.472;18.048;2022-07-03T06:30:03;4.30;;;1.30;;
10281;SDS011;5186;59.472;18.048;2022-07-03T06:32:29;3.50;;;1.10;;
10281;SDS011;5186;59.472;18.048;2022-07-03T06:34:55;2.30;;;1.10;;
10281;SDS011;5186;59.472;18.048;2022-07-03T06:37:21;2.00;;;1.03;;
10281;SDS011;5186;59.472;18.048;2022-07-03T06:39:47;2.63;;;0.80;;
10281;SDS011;5186;59.472;18.048;2022-07-03T06:42:13;2.87;;;0.97;;
10281;SDS011;5186;59.472;18.048;2022-07-03T06:44:38;3.33;;;1.10;;
10281;SDS011;5186;59.472;18.048;2022-07-03T06:47:04;2.87;;;1.10;;
10281;SDS011;5186;59.472;18.048;2022-07-03T06:49:34;2.40;;;0.97;;
10281;SDS011;5186;59.472;18.048;2022-07-03T06:52:00;1.80;;;1.00;;
10281;SDS011;5186;59.472;18.048;2022-07-03T06:54:26;2.53;;;1.20;;
10281;SDS011;5186;59.472;18.048;2022-07-03T06:56:51;3.83;;;1.07;;
10281;SDS011;5186;59.472;18.048;2022-07-03T06:59:17;1.57;;;1.13;;
10281;SDS011;5186;59.472;18.048;2022-07-03T07:01:43;3.93;;;1.20;;
10281;SDS011;5186;59.472;18.048;2022-07-03T07:04:08;1.87;;;0.93;;
10281;SDS011;5186;59.472;18.048;2022-07-03T07:06:34;2.50;;;1.00;;
10281;SDS011;5186;59.472;18.048;2022-07-03T07:09:00;2.23;;;1.00;;
10281;SDS011;5186;59.472;18.048;2022-07-03T07:11:26;1.57;;;0.80;;
10281;SDS011;5186;59.472;18.048;2022-07-03T07:13:51;1.97;;;1.03;;
10281;SDS011;5186;59.472;18.048;2022-07-03T07:16:17;2.37;;;0.90;;
10281;SDS011;5186;59.472;18.048;2022-07-03T07:18:43;5.70;;;1.10;;
10281;SDS011;5186;59.472;18.048;2022-07-03T07:21:09;2.00;;;1.00;;
10281;SDS011;5186;59.472;18.048;2022-07-03T07:23:35;2.47;;;0.90;;
10281;SDS011;5186;59.472;18.048;2022-07-03T07:26:01;2.27;;;0.90;;
10281;SDS011;5186;59.472;18.048;2022-07-03T07:28:27;5.20;;;1.10;;
10281;SDS011;5186;59.472;18.048;2022-07-03T07:30:53;2.20;;;1.10;;
10281;SDS011;5186;59.472;18.048;2022-07-03T07:33:21;1.33;;;0.87;;
10281;SDS011;5186;59.472;18.048;2022-07-03T07:35:47;3.57;;;1.10;;
10281;SDS011;5186;59.472;18.048;2022-07-03T07:38:13;1.97;;;1.17;;
10281;SDS011;5186;59.472;18.048;2022-07-03T07:40:39;1.90;;;0.90;;
10281;SDS011;5186;59.472;18.048;2022-07-03T07:43:05;2.57;;;0.90;;
10281;SDS011;5186;59.472;18.048;2022-07-03T07:45:30;3.07;;;1.00;;
10281;SDS011;5186;59.472;18.048;2022-07-03T07:47:56;2.23;;;1.00;;
10281;SDS011;5186;59.472;18.048;2022-07-03T07:50:22;3.57;;;0.90;;
10281;SDS011;5186;59.472;18.048;2022-07-03T07:52:48;4.23;;;1.00;;
10281;SDS011;5186;59.472;18.048;2022-07-03T07:55:13;4.50;;;0.87;;
10281;SDS011;5186;59.472;18.048;2022-07-03T07:57:39;5.23;;;1.30;;
10281;SDS011;5186;59.472;18.048;2022-07-03T08:00:09;1.93;;;1.10;;
10281;SDS011;5186;59.472;18.048;2022-07-03T08:02:39;3.50;;;1.10;;
10281;SDS011;5186;59.472;18.048;2022-07-03T08:05:23;2.17;;;1.00;;
10281;SDS011;5186;59.472;18.048;2022-07-03T08:08:11;3.10;;;0.80;;
10281;SDS011;5186;59.472;18.048;2022-07-03T08:10:44;3.40;;;1.00;;
10281;SDS011;5186;59.472;18.048;2022-07-03T08:13:12;3.27;;;0.97;;
10281;SDS011;5186;59.472;18.048;2022-07-03T08:15:39;1.57;;;1.07;;
10281;SDS011;5186;59.472;18.048;2022-07-03T08:18:05;3.50;;;1.10;;
10281;SDS011;5186;59.472;18.048;2022-07-03T08:20:31;3.60;;;0.80;;
10281;SDS011;5186;59.472;18.048;2022-07-03T08:22:58;4.93;;;1.27;;
10281;SDS011;5186;59.472;18.048;2022-07-03T08:25:23;3.03;;;1.00;;
10281;SDS011;5186;59.472;18.048;2022-07-03T08:27:49;3.63;;;1.17;;
10281;SDS011;5186;59.472;18.048;2022-07-03T08:30:15;2.67;;;1.10;;
10281;SDS011;5186;59.472;18.048;2022-07-03T08:32:50;3.23;;;1.00;;
10281;SDS011;5186;59.472;18.048;2022-07-03T08:35:18;2.60;;;0.97;;
10281;SDS011;5186;59.472;18.048;2022-07-03T08:37:44;3.47;;;0.90;;
10281;SDS011;5186;59.472;18.048;2022-07-03T08:40:12;3.47;;;1.13;;
10281;SDS011;5186;59.472;18.048;2022-07-03T08:42:42;3.00;;;0.90;;
10281;SDS011;5186;59.472;18.048;2022-07-03T08:45:13;3.63;;;1.10;;
10281;SDS011;5186;59.472;18.048;2022-07-03T08:47:40;2.50;;;1.10;;
10281;SDS011;5186;59.472;18.048;2022-07-03T08:50:07;3.97;;;1.20;;
10281;SDS011;5186;59.472;18.048;2022-07-03T08:52:34;2.33;;;0.93;;
10281;SDS011;5186;59.472;18.048;2022-07-03T08:55:01;1.20;;;0.80;;
10281;SDS011;5186;59.472;18.048;2022-07-03T08:57:28;2.10;;;0.93;;
10281;SDS011;5186;59.472;18.048;2022-07-03T08:59:56;4.03;;;1.10;;
10281;SDS011;5186;59.472;18.048;2022-07-03T09:02:23;3.23;;;1.00;;
10281;SDS011;5186;59.472;18.048;2022-07-03T09:04:50;5.13;;;1.27;;
10281;SDS011;5186;59.472;18.048;2022-07-03T09:07:17;2.87;;;0.97;;
10281;SDS011;5186;59.472;18.048;2022-07-03T09:09:44;3.27;;;0.97;;
10281;SDS011;5186;59.472;18.048;2022-07-03T09:12:10;2.80;;;0.90;;
10281;SDS011;5186;59.472;18.048;2022-07-03T09:14:36;1.97;;;0.90;;
10281;SDS011;5186;59.472;18.048;2022-07-03T09:17:01;4.93;;;0.87;;
10281;SDS011;5186;59.472;18.048;2022-07-03T09:19:40;3.33;;;1.07;;
10281;SDS011;5186;59.472;18.048;2022-07-03T09:22:24;3.30;;;1.00;;
10281;SDS011;5186;59.472;18.048;2022-07-03T09:25:08;4.17;;;0.80;;
10281;SDS011;5186;59.472;18.048;2022-07-03T09:27:49;2.63;;;0.90;;
10281;SDS011;5186;59.472;18.048;2022-07-03T09:30:16;1.80;;;0.90;;
10281;SDS011;5186;59.472;18.048;2022-07-03T09:32:46;1.37;;;0.80;;
10281;SDS011;5186;59.472;18.048;2022-07-03T09:38:01;2.27;;;0.80;;
10281;SDS011;5186;59.472;18.048;2022-07-03T09:43:14;2.70;;;0.90;;
10281;SDS011;5186;59.472;18.048;2022-07-03T09:45:58;1.73;;;0.93;;
10281;SDS011;5186;59.472;18.048;2022-07-03T09:56:43;2.53;;;0.83;;
10281;SDS011;5186;59.472;18.048;2022-07-03T09:59:11;2.20;;;0.87;;
10281;SDS011;5186;59.472;18.048;2022-07-03T10:01:39;1.50;;;0.70;;
10281;SDS011;5186;59.472;18.048;2022-07-03T10:04:21;1.23;;;0.77;;
10281;SDS011;5186;59.472;18.048;2022-07-03T10:07:08;2.80;;;1.00;;
10281;SDS011;5186;59.472;18.048;2022-07-03T10:09:34;5.53;;;1.03;;
10281;SDS011;5186;59.472;18.048;2022-07-03T10:12:00;2.00;;;0.70;;
10281;SDS011;5186;59.472;18.048;2022-07-03T10:14:28;2.13;;;0.80;;
10281;SDS011;5186;59.472;18.048;2022-07-03T10:16:55;2.10;;;0.70;;
10281;SDS011;5186;59.472;18.048;2022-07-03T10:19:25;1.63;;;0.90;;
10281;SDS011;5186;59.472;18.048;2022-07-03T10:21:53;1.63;;;0.70;;
10281;SDS011;5186;59.472;18.048;2022-07-03T10:24:28;1.63;;;0.60;;
10281;SDS011;5186;59.472;18.048;2022-07-03T10:26:55;3.50;;;0.80;;
10281;SDS011;5186;59.472;18.048;2022-07-03T10:29:23;1.30;;;0.60;;
10281;SDS011;5186;59.472;18.048;2022-07-03T10:31:50;2.43;;;0.73;;
10281;SDS011;5186;59.472;18.048;2022-07-03T10:34:20;3.77;;;0.90;;
10281;SDS011;5186;59.472;18.048;2022-07-03T10:36:47;0.73;;;0.60;;
10281;SDS011;5186;59.472;18.048;2022-07-03T10:39:23;2.03;;;0.77;;
10281;SDS011;5186;59.472;18.048;2022-07-03T10:41:53;1.33;;;0.60;;
10281;SDS011;5186;59.472;18.048;2022-07-03T10:50:15;2.00;;;0.70;;
10281;SDS011;5186;59.472;18.048;2022-07-03T10:52:45;0.80;;;0.70;;
10281;SDS011;5186;59.472;18.048;2022-07-03T10:55:12;1.90;;;0.77;;
10281;SDS011;5186;59.472;18.048;2022-07-03T10:57:40;1.87;;;0.67;;
10281;SDS011;5186;59.472;18.048;2022-07-03T11:00:08;2.27;;;0.60;;
10281;SDS011;5186;59.472;18.048;2022-07-03T11:02:45;3.30;;;0.77;;
10281;SDS011;5186;59.472;18.048;2022-07-03T11:05:20;3.10;;;0.83;;
10281;SDS011;5186;59.472;18.048;2022-07-03T11:08:02;1.60;;;0.60;;
10281;SDS011;5186;59.472;18.048;2022-07-03T11:10:30;1.80;;;0.83;;
10281;SDS011;5186;59.472;18.048;2022-07-03T11:15:26;0.70;;;0.57;;
10281;SDS011;5186;59.472;18.048;2022-07-03T11:20:37;1.50;;;0.70;;
10281;SDS011;5186;59.472;18.048;2022-07-03T11:25:51;0.87;;;0.50;;
10281;SDS011;5186;59.472;18.048;2022-07-03T11:38:43;0.83;;;0.60;;
10281;SDS011;5186;59.472;18.048;2022-07-03T11:41:10;2.00;;;0.80;;
10281;SDS011;5186;59.472;18.048;2022-07-03T11:43:37;1.17;;;0.80;;
10281;SDS011;5186;59.472;18.048;2022-07-03T11:46:10;1.63;;;0.60;;
10281;SDS011;5186;59.472;18.048;2022-07-03T11:48:41;0.80;;;0.50;;
10281;SDS011;5186;59.472;18.048;2022-07-03T11:51:07;1.47;;;0.70;;
10281;SDS011;5186;59.472;18.048;2022-07-03T11:53:34;1.10;;;0.60;;
10281;SDS011;5186;59.472;18.048;2022-07-03T11:56:08;1.13;;;0.40;;
10281;SDS011;5186;59.472;18.048;2022-07-03T12:01:11;0.60;;;0.60;;
10281;SDS011;5186;59.472;18.048;2022-07-03T12:03:53;0.80;;;0.50;;
10281;SDS011;5186;59.472;18.048;2022-07-03T12:06:28;0.83;;;0.50;;
10281;SDS011;5186;59.472;18.048;2022-07-03T12:09:02;1.33;;;0.57;;
10281;SDS011;5186;59.472;18.048;2022-07-03T12:11:37;2.27;;;0.60;;
10281;SDS011;5186;59.472;18.048;2022-07-03T12:14:02;1.87;;;0.80;;
10281;SDS011;5186;59.472;18.048;2022-07-03T12:16:31;2.60;;;0.50;;
10281;SDS011;5186;59.472;18.048;2022-07-03T12:19:02;2.97;;;0.57;;
10281;SDS011;5186;59.472;18.048;2022-07-03T12:21:35;2.13;;;0.50;;
10281;SDS011;5186;59.472;18.048;2022-07-03T12:24:11;1.87;;;0.70;;
10281;SDS011;5186;59.472;18.048;2022-07-03T12:26:38;1.43;;;0.60;;
10281;SDS011;5186;59.472;18.048;2022-07-03T12:29:07;1.07;;;0.53;;
10281;SDS011;5186;59.472;18.048;2022-07-03T12:31:34;0.93;;;0.70;;
10281;SDS011;5186;59.472;18.048;2022-07-03T12:34:03;0.50;;;0.50;;
10281;SDS011;5186;59.472;18.048;2022-07-03T12:36:29;2.10;;;0.57;;
10281;SDS011;5186;59.472;18.048;2022-07-03T12:38:55;0.80;;;0.60;;
10281;SDS011;5186;59.472;18.048;2022-07-03T12:41:22;2.17;;;0.70;;
10281;SDS011;5186;59.472;18.048;2022-07-03T12:43:48;0.50;;;0.50;;
10281;SDS011;5186;59.472;18.048;2022-07-03T12:46:18;2.47;;;0.60;;
10281;SDS011;5186;59.472;18.048;2022-07-03T12:48:46;2.07;;;0.60;;
10281;SDS011;5186;59.472;18.048;2022-07-03T12:51:15;1.43;;;0.50;;
10281;SDS011;5186;59.472;18.048;2022-07-03T12:53:41;0.93;;;0.60;;
10281;SDS011;5186;59.472;18.048;2022-07-03T12:56:08;0.67;;;0.63;;
10281;SDS011;5186;59.472;18.048;2022-07-03T12:58:35;2.17;;;0.70;;
10281;SDS011;5186;59.472;18.048;2022-07-03T13:01:27;1.03;;;0.70;;
10281;SDS011;5186;59.472;18.048;2022-07-03T13:04:01;1.23;;;0.63;;
10281;SDS011;5186;59.472;18.048;2022-07-03T13:06:27;1.27;;;0.60;;
10281;SDS011;5186;59.472;18.048;2022-07-03T13:08:54;0.83;;;0.50;;
10281;SDS011;5186;59.472;18.048;2022-07-03T13:11:33;1.40;;;0.83;;
10281;SDS011;5186;59.472;18.048;2022-07-03T13:14:03;1.27;;;0.60;;
10281;SDS011;5186;59.472;18.048;2022-07-03T13:16:36;2.67;;;0.73;;
10281;SDS011;5186;59.472;18.048;2022-07-03T13:19:13;2.23;;;0.70;;
10281;SDS011;5186;59.472;18.048;2022-07-03T13:21:40;0.93;;;0.50;;
10281;SDS011;5186;59.472;18.048;2022-07-03T13:24:08;0.67;;;0.60;;
10281;SDS011;5186;59.472;18.048;2022-07-03T13:26:34;1.63;;;0.80;;
10281;SDS011;5186;59.472;18.048;2022-07-03T13:29:00;0.93;;;0.60;;
10281;SDS011;5186;59.472;18.048;2022-07-03T13:31:27;1.40;;;0.67;;
10281;SDS011;5186;59.472;18.048;2022-07-03T13:33:52;1.47;;;0.83;;
10281;SDS011;5186;59.472;18.048;2022-07-03T13:36:18;3.17;;;0.90;;
10281;SDS011;5186;59.472;18.048;2022-07-03T13:38:44;0.93;;;0.70;;
10281;SDS011;5186;59.472;18.048;2022-07-03T13:41:10;2.13;;;0.60;;
10281;SDS011;5186;59.472;18.048;2022-07-03T13:43:36;2.33;;;0.60;;
10281;SDS011;5186;59.472;18.048;2022-07-03T13:46:02;3.53;;;0.80;;
10281;SDS011;5186;59.472;18.048;2022-07-03T13:48:28;1.53;;;0.77;;
10281;SDS011;5186;59.472;18.048;2022-07-03T13:50:54;1.33;;;0.60;;
10281;SDS011;5186;59.472;18.048;2022-07-03T13:53:19;5.23;;;0.73;;
10281;SDS011;5186;59.472;18.048;2022-07-03T13:55:45;1.47;;;0.70;;
10281;SDS011;5186;59.472;18.048;2022-07-03T13:58:11;1.83;;;0.70;;
10281;SDS011;5186;59.472;18.048;2022-07-03T14:00:37;1.23;;;0.63;;
10281;SDS011;5186;59.472;18.048;2022-07-03T14:03:03;2.40;;;0.60;;
10281;SDS011;5186;59.472;18.048;2022-07-03T14:05:29;1.70;;;0.93;;
10281;SDS011;5186;59.472;18.048;2022-07-03T14:07:55;1.10;;;0.87;;
10281;SDS011;5186;59.472;18.048;2022-07-03T14:10:21;0.73;;;0.70;;
10281;SDS011;5186;59.472;18.048;2022-07-03T14:12:47;1.43;;;0.70;;
10281;SDS011;5186;59.472;18.048;2022-07-03T14:15:13;1.80;;;0.80;;
10281;SDS011;5186;59.472;18.048;2022-07-03T14:17:39;0.70;;;0.70;;
10281;SDS011;5186;59.472;18.048;2022-07-03T14:20:05;2.00;;;0.73;;
10281;SDS011;5186;59.472;18.048;2022-07-03T14:22:31;3.50;;;0.60;;
10281;SDS011;5186;59.472;18.048;2022-07-03T14:24:57;2.50;;;0.90;;
10281;SDS011;5186;59.472;18.048;2022-07-03T14:27:23;1.43;;;0.80;;
10281;SDS011;5186;59.472;18.048;2022-07-03T14:30:07;1.40;;;0.70;;
10281;SDS011;5186;59.472;18.048;2022-07-03T14:32:51;0.93;;;0.63;;
10281;SDS011;5186;59.472;18.048;2022-07-03T14:35:17;1.40;;;0.73;;
10281;SDS011;5186;59.472;18.048;2022-07-03T14:37:43;1.30;;;0.63;;
10281;SDS011;5186;59.472;18.048;2022-07-03T14:40:08;2.00;;;0.60;;
10281;SDS011;5186;59.472;18.048;2022-07-03T14:42:34;1.70;;;0.87;;
10281;SDS011;5186;59.472;18.048;2022-07-03T14:45:00;1.33;;;0.70;;
10281;SDS011;5186;59.472;18.048;2022-07-03T14:47:26;2.10;;;0.70;;
10281;SDS011;5186;59.472;18.048;2022-07-03T14:49:51;1.80;;;0.70;;
10281;SDS011;5186;59.472;18.048;2022-07-03T14:52:17;3.40;;;0.70;;
10281;SDS011;5186;59.472;18.048;2022-07-03T14:54:42;0.77;;;0.60;;
10281;SDS011;5186;59.472;18.048;2022-07-03T15:00:07;0.97;;;0.87;;
10281;SDS011;5186;59.472;18.048;2022-07-03T15:02:57;2.90;;;1.10;;
10281;SDS011;5186;59.472;18.048;2022-07-03T15:05:33;1.17;;;0.90;;
10281;SDS011;5186;59.472;18.048;2022-07-03T15:08:15;1.10;;;0.80;;
10281;SDS011;5186;59.472;18.048;2022-07-03T15:10:52;2.00;;;1.10;;
10281;SDS011;5186;59.472;18.048;2022-07-03T15:13:19;1.57;;;0.83;;
10281;SDS011;5186;59.472;18.048;2022-07-03T15:15:46;1.73;;;0.90;;
10281;SDS011;5186;59.472;18.048;2022-07-03T15:18:13;1.97;;;1.03;;
10281;SDS011;5186;59.472;18.048;2022-07-03T15:20:42;1.83;;;1.07;;
10281;SDS011;5186;59.472;18.048;2022-07-03T15:23:09;2.53;;;0.83;;
10281;SDS011;5186;59.472;18.048;2022-07-03T15:25:36;3.33;;;0.90;;
10281;SDS011;5186;59.472;18.048;2022-07-03T15:28:03;3.33;;;1.30;;
10281;SDS011;5186;59.472;18.048;2022-07-03T15:30:30;4.03;;;1.00;;
10281;SDS011;5186;59.472;18.048;2022-07-03T15:32:56;3.03;;;1.10;;
10281;SDS011;5186;59.472;18.048;2022-07-03T15:35:23;0.60;;;0.60;;
10281;SDS011;5186;59.472;18.048;2022-07-03T15:43:19;2.17;;;0.90;;
10281;SDS011;5186;59.472;18.048;2022-07-03T15:51:56;2.20;;;1.20;;
10281;SDS011;5186;59.472;18.048;2022-07-03T15:57:11;1.53;;;1.13;;
10281;SDS011;5186;59.472;18.048;2022-07-03T15:59:49;2.10;;;1.10;;
10281;SDS011;5186;59.472;18.048;2022-07-03T16:02:25;1.63;;;0.80;;
10281;SDS011;5186;59.472;18.048;2022-07-03T16:05:02;1.43;;;1.10;;
10281;SDS011;5186;59.472;18.048;2022-07-03T16:07:30;2.70;;;1.10;;
10281;SDS011;5186;59.472;18.048;2022-07-03T16:09:59;1.60;;;1.20;;
10281;SDS011;5186;59.472;18.048;2022-07-03T16:12:27;5.47;;;1.10;;
10281;SDS011;5186;59.472;18.048;2022-07-03T16:14:53;1.67;;;0.90;;
10281;SDS011;5186;59.472;18.048;2022-07-03T16:17:20;1.77;;;1.00;;
10281;SDS011;5186;59.472;18.048;2022-07-03T16:19:47;2.53;;;0.80;;